createdAt,value
2022-12-12T00:02:03.697Z,1.92
2022-12-12T00:04:34.022Z,1.33
2022-12-12T00:07:04.184Z,1.25
2022-12-12T00:09:34.416Z,1.65
2022-12-12T00:12:04.655Z,0.65
2022-12-12T00:14:35.537Z,2.25
2022-12-12T00:17:05.806Z,1.17
2022-12-12T00:19:36.180Z,1.05
2022-12-12T00:22:06.573Z,1.08
2022-12-12T00:24:36.769Z,4.95
2022-12-12T00:27:07.032Z,1.95
2022-12-12T00:29:37.308Z,2.17
2022-12-12T00:32:07.880Z,1.65
2022-12-12T00:34:38.119Z,2.20
2022-12-12T00:37:08.375Z,4.45
2022-12-12T00:39:38.671Z,3.10
2022-12-12T00:42:09.000Z,1.08
2022-12-12T00:44:39.291Z,1.95
2022-12-12T00:47:09.667Z,0.57
2022-12-12T00:49:39.922Z,3.83
2022-12-12T00:52:10.163Z,1.58
2022-12-12T00:54:40.374Z,1.40
2022-12-12T00:57:10.705Z,3.53
2022-12-12T00:59:40.976Z,4.70
2022-12-12T01:02:11.581Z,0.70
2022-12-12T01:04:42.205Z,1.23
2022-12-12T01:07:12.434Z,5.15
2022-12-12T01:09:42.696Z,2.78
2022-12-12T01:12:12.940Z,2.78
2022-12-12T01:14:43.272Z,1.40
2022-12-12T01:17:13.614Z,6.20
2022-12-12T01:19:44.078Z,3.53
2022-12-12T01:22:14.282Z,1.88
2022-12-12T01:24:44.514Z,0.88
2022-12-12T01:27:14.693Z,0.85
2022-12-12T01:29:44.954Z,2.45
2022-12-12T01:32:15.171Z,1.80
2022-12-12T01:34:45.340Z,3.40
2022-12-12T01:37:15.613Z,2.00
2022-12-12T01:39:45.832Z,0.55
2022-12-12T01:42:18.423Z,2.38
2022-12-12T01:44:54.440Z,1.35
2022-12-12T01:47:26.153Z,1.27
2022-12-12T01:50:08.015Z,1.60
2022-12-12T01:52:45.573Z,11.80
2022-12-12T01:55:23.423Z,8.57
2022-12-12T01:57:57.167Z,1.80
2022-12-12T02:00:27.378Z,2.10
2022-12-12T02:02:58.750Z,4.72
2022-12-12T02:05:43.874Z,1.38
2022-12-12T02:08:26.085Z,1.42
2022-12-12T02:10:56.410Z,1.67
2022-12-12T02:13:31.221Z,2.58
2022-12-12T02:16:35.105Z,1.63
2022-12-12T02:19:31.183Z,2.75
2022-12-12T02:22:21.362Z,7.90
2022-12-12T02:25:22.617Z,5.10
2022-12-12T02:28:12.576Z,2.38
2022-12-12T02:31:07.386Z,2.05
2022-12-12T02:34:00.436Z,6.53
2022-12-12T02:37:03.731Z,3.58
2022-12-12T02:39:48.845Z,1.45
2022-12-12T02:42:25.449Z,1.58
2022-12-12T02:44:58.572Z,1.58
2022-12-12T02:47:34.802Z,2.40
2022-12-12T02:50:26.871Z,1.23
2022-12-12T02:52:57.236Z,2.30
2022-12-12T02:55:27.544Z,4.28
2022-12-12T02:57:58.198Z,0.77
2022-12-12T03:00:31.198Z,1.45
2022-12-12T03:03:37.606Z,1.77
2022-12-12T03:07:10.229Z,1.20
2022-12-12T03:10:04.853Z,1.80
2022-12-12T03:12:56.083Z,1.90
2022-12-12T03:15:33.640Z,1.58
2022-12-12T03:18:24.959Z,2.25
2022-12-12T03:21:04.847Z,2.65
2022-12-12T03:23:49.922Z,3.38
2022-12-12T03:26:45.046Z,5.43
2022-12-12T03:29:38.238Z,5.55
2022-12-12T03:32:21.392Z,2.97
2022-12-12T03:35:02.527Z,1.38
2022-12-12T03:37:37.684Z,3.45
2022-12-12T03:40:17.763Z,2.83
2022-12-12T03:43:27.255Z,5.95
2022-12-12T03:46:04.916Z,0.90
2022-12-12T03:48:43.271Z,0.88
2022-12-12T03:51:34.833Z,0.90
2022-12-12T03:54:14.896Z,1.42
2022-12-12T03:57:08.270Z,5.93
2022-12-12T03:59:54.999Z,0.93
2022-12-12T04:02:37.151Z,1.73
2022-12-12T04:05:37.994Z,2.28
2022-12-12T04:08:15.697Z,1.13
2022-12-12T04:11:09.573Z,2.63
2022-12-12T04:13:39.814Z,1.83
2022-12-12T04:16:20.698Z,1.52
2022-12-12T04:19:39.548Z,2.25
2022-12-12T04:22:32.007Z,6.72
2022-12-12T04:25:08.670Z,7.15
2022-12-12T04:27:49.036Z,3.40
2022-12-12T04:30:19.383Z,1.45
2022-12-12T04:33:13.619Z,4.30
2022-12-12T04:35:52.205Z,1.90
2022-12-12T04:38:31.514Z,2.25
2022-12-12T04:41:03.247Z,0.93
2022-12-12T04:43:39.923Z,2.65
2022-12-12T04:46:24.034Z,2.20
2022-12-12T04:48:58.535Z,2.25
2022-12-12T04:51:35.842Z,1.55
2022-12-12T04:54:53.392Z,1.27
2022-12-12T04:57:29.949Z,4.57
2022-12-12T05:00:00.447Z,6.60
2022-12-12T05:02:42.895Z,4.85
2022-12-12T05:05:29.523Z,0.88
2022-12-12T05:08:12.509Z,8.57
2022-12-12T05:10:48.542Z,2.80
2022-12-12T05:13:24.879Z,1.17
2022-12-12T05:15:57.585Z,1.33
2022-12-12T05:18:28.302Z,2.03
2022-12-12T05:20:58.516Z,2.00
2022-12-12T05:23:34.323Z,4.28
2022-12-12T05:26:27.334Z,1.92
2022-12-12T05:29:01.138Z,1.33
2022-12-12T05:31:35.725Z,2.85
2022-12-12T05:34:07.017Z,1.52
2022-12-12T05:36:37.348Z,3.08
2022-12-12T05:39:07.588Z,2.70
2022-12-12T05:41:37.993Z,1.05
2022-12-12T05:44:08.329Z,2.28
2022-12-12T05:46:39.017Z,1.48
2022-12-12T05:49:09.284Z,3.78
2022-12-12T05:51:39.587Z,1.83
2022-12-12T05:54:09.874Z,2.83
2022-12-12T05:56:40.216Z,1.95
2022-12-12T05:59:10.479Z,1.23
2022-12-12T06:01:40.758Z,2.25
2022-12-12T06:04:11.086Z,0.65
2022-12-12T06:06:41.566Z,4.07
2022-12-12T06:09:11.775Z,4.03
2022-12-12T06:11:42.190Z,5.43
2022-12-12T06:14:12.628Z,12.45
2022-12-12T06:16:42.944Z,5.32
2022-12-12T06:19:13.396Z,6.30
2022-12-12T06:21:43.812Z,4.05
2022-12-12T06:24:14.114Z,1.17
2022-12-12T06:26:44.479Z,2.15
2022-12-12T06:29:16.429Z,0.90
2022-12-12T06:31:46.706Z,2.20
2022-12-12T06:34:17.036Z,4.85
2022-12-12T06:36:47.422Z,1.05
2022-12-12T06:39:17.640Z,0.55
2022-12-12T06:41:47.939Z,6.45
2022-12-12T06:44:18.284Z,4.22
2022-12-12T06:46:48.812Z,5.28
2022-12-12T06:49:19.001Z,4.10
2022-12-12T06:51:50.655Z,2.28
2022-12-12T06:54:21.579Z,2.58
2022-12-12T06:56:52.552Z,6.50
2022-12-12T06:59:22.926Z,1.45
2022-12-12T07:01:53.324Z,1.10
2022-12-12T07:04:23.573Z,1.15
2022-12-12T07:06:54.066Z,0.50
2022-12-12T07:09:24.353Z,1.30
2022-12-12T07:11:54.692Z,5.63
2022-12-12T07:14:24.957Z,2.80
2022-12-12T07:16:55.330Z,0.65
2022-12-12T07:19:25.639Z,2.33
2022-12-12T07:21:55.915Z,0.40
2022-12-12T07:24:26.156Z,3.50
2022-12-12T07:26:56.657Z,2.28
2022-12-12T07:29:27.210Z,2.53
2022-12-12T07:31:57.948Z,2.60
2022-12-12T07:34:30.863Z,0.93
2022-12-12T07:37:03.280Z,2.42
2022-12-12T07:39:38.810Z,2.80
2022-12-12T07:42:09.190Z,1.90
2022-12-12T07:44:39.501Z,0.98
2022-12-12T07:47:10.110Z,3.70
2022-12-12T07:49:40.821Z,1.00
2022-12-12T07:52:11.095Z,1.33
2022-12-12T07:54:41.439Z,4.93
2022-12-12T07:57:12.054Z,1.30
2022-12-12T07:59:42.385Z,2.50
2022-12-12T08:02:13.580Z,2.72
2022-12-12T08:04:43.888Z,1.50
2022-12-12T08:07:14.216Z,0.63
2022-12-12T08:09:44.488Z,1.20
2022-12-12T08:12:14.792Z,1.15
2022-12-12T08:14:45.100Z,2.92
2022-12-12T08:17:16.051Z,2.55
2022-12-12T08:19:46.308Z,9.02
2022-12-12T08:22:16.854Z,9.25
2022-12-12T08:24:47.028Z,6.70
2022-12-12T08:27:17.440Z,9.05
2022-12-12T08:29:47.744Z,0.75
2022-12-12T08:32:18.074Z,3.38
2022-12-12T08:34:49.595Z,3.03
2022-12-12T08:37:19.986Z,2.17
2022-12-12T08:39:54.192Z,1.35
2022-12-12T08:42:26.189Z,0.80
2022-12-12T08:44:56.365Z,2.22
2022-12-12T08:47:26.834Z,3.28
2022-12-12T08:49:57.688Z,3.05
2022-12-12T08:52:27.953Z,1.27
2022-12-12T08:54:58.123Z,0.90
2022-12-12T08:57:28.741Z,1.95
2022-12-12T08:59:59.143Z,0.73
2022-12-12T09:02:29.468Z,1.10
2022-12-12T09:04:59.678Z,1.90
2022-12-12T09:07:29.860Z,2.70
2022-12-12T09:10:00.052Z,2.72
2022-12-12T09:12:30.722Z,1.95
2022-12-12T09:15:00.906Z,3.22
2022-12-12T09:17:31.191Z,1.35
2022-12-12T09:20:01.479Z,0.93
2022-12-12T09:22:35.250Z,1.10
2022-12-12T09:25:06.370Z,0.40
2022-12-12T09:27:36.801Z,2.13
2022-12-12T09:30:07.336Z,3.20
2022-12-12T09:32:37.843Z,2.22
2022-12-12T09:35:08.590Z,1.65
2022-12-12T09:37:39.160Z,1.40
2022-12-12T09:40:10.026Z,5.50
2022-12-12T09:42:49.123Z,1.13
2022-12-12T09:45:20.617Z,0.68
2022-12-12T09:47:57.963Z,1.27
2022-12-12T09:50:50.343Z,3.03
2022-12-12T09:53:24.000Z,4.00
2022-12-12T09:55:58.658Z,1.15
2022-12-12T09:59:05.336Z,1.90
2022-12-12T10:01:57.995Z,1.38
2022-12-12T10:04:55.290Z,2.25
2022-12-12T10:07:57.028Z,12.18
2022-12-12T10:10:55.061Z,2.45
2022-12-12T10:13:29.279Z,3.30
2022-12-12T10:16:10.514Z,0.70
2022-12-12T10:18:52.518Z,0.65
2022-12-12T10:21:31.827Z,0.57
2022-12-12T10:24:27.723Z,1.85
2022-12-12T10:26:59.673Z,2.42
2022-12-12T10:29:30.224Z,1.48
2022-12-12T10:32:18.954Z,7.72
2022-12-12T10:35:26.893Z,1.40
2022-12-12T10:38:29.838Z,3.13
2022-12-12T10:41:09.201Z,0.73
2022-12-12T10:44:00.864Z,2.53
2022-12-12T10:46:50.621Z,2.38
2022-12-12T10:49:25.443Z,1.40
2022-12-12T10:51:57.975Z,1.60
2022-12-12T10:54:30.477Z,1.15
2022-12-12T10:57:22.878Z,0.28
2022-12-12T11:00:00.385Z,0.95
2022-12-12T11:02:41.395Z,1.55
2022-12-12T11:05:26.085Z,1.83
2022-12-12T11:08:25.634Z,3.85
2022-12-12T11:11:23.558Z,2.35
2022-12-12T11:14:06.082Z,1.65
2022-12-12T11:16:47.361Z,0.60
2022-12-12T11:19:23.135Z,0.50
2022-12-12T11:21:57.526Z,1.42
2022-12-12T11:24:34.316Z,1.55
2022-12-12T11:27:08.007Z,2.63
2022-12-12T11:29:49.032Z,1.88
2022-12-12T11:32:26.396Z,2.03
2022-12-12T11:35:00.439Z,2.60
2022-12-12T11:37:41.947Z,1.48
2022-12-12T11:40:27.729Z,1.05
2022-12-12T11:43:21.275Z,2.47
2022-12-12T11:46:05.723Z,2.50
2022-12-12T11:48:40.989Z,2.03
2022-12-12T11:51:11.967Z,0.55
2022-12-12T11:53:47.906Z,3.38
2022-12-12T11:56:56.132Z,0.82
2022-12-12T12:00:02.973Z,0.73
2022-12-12T12:02:51.397Z,0.70
2022-12-12T12:05:27.676Z,2.80
2022-12-12T12:08:27.364Z,1.80
2022-12-12T12:11:03.834Z,1.00
2022-12-12T12:13:46.850Z,2.30
2022-12-12T12:16:42.743Z,1.58
2022-12-12T12:19:22.020Z,0.52
2022-12-12T12:22:02.863Z,2.75
2022-12-12T12:24:38.553Z,0.65
2022-12-12T12:27:42.159Z,2.15
2022-12-12T12:30:53.632Z,1.45
2022-12-12T12:33:38.991Z,1.33
2022-12-12T12:36:21.520Z,3.67
2022-12-12T12:39:01.684Z,2.42
2022-12-12T12:42:08.553Z,1.48
2022-12-12T12:45:08.372Z,2.67
2022-12-12T12:48:18.048Z,3.88
2022-12-12T12:51:13.935Z,6.47
2022-12-12T12:53:53.509Z,7.43
2022-12-12T12:56:28.831Z,7.40
2022-12-12T12:59:05.713Z,8.70
2022-12-12T13:01:57.264Z,11.07
2022-12-12T13:04:37.295Z,5.80
2022-12-12T13:07:40.988Z,8.20
2022-12-12T13:10:32.026Z,7.28
2022-12-12T13:13:15.171Z,11.80
2022-12-12T13:15:56.117Z,12.38
2022-12-12T13:18:33.317Z,12.85
2022-12-12T13:21:32.993Z,8.60
2022-12-12T13:24:11.500Z,10.82
2022-12-12T13:27:03.026Z,7.68
2022-12-12T13:29:51.990Z,5.65
2022-12-12T13:32:37.294Z,7.00
2022-12-12T13:35:14.843Z,8.70
2022-12-12T13:37:52.149Z,7.53
2022-12-12T13:40:41.453Z,11.32
2022-12-12T13:43:36.404Z,10.00
2022-12-12T13:46:30.185Z,8.93
2022-12-12T13:49:00.351Z,9.07
2022-12-12T13:51:32.021Z,8.50
2022-12-12T13:54:13.864Z,7.88
2022-12-12T13:56:47.943Z,6.80
2022-12-12T13:59:29.718Z,6.68
2022-12-12T14:02:34.034Z,10.85
2022-12-12T14:05:24.744Z,5.45
2022-12-12T14:08:09.033Z,8.25
2022-12-12T14:10:49.396Z,6.60
2022-12-12T14:13:28.767Z,5.80
2022-12-12T14:16:02.088Z,5.20
2022-12-12T14:18:43.397Z,5.90
2022-12-12T14:21:16.288Z,6.22
2022-12-12T14:23:49.472Z,5.22
2022-12-12T14:26:31.912Z,8.45
2022-12-12T14:29:20.529Z,5.72
2022-12-12T14:32:10.057Z,7.40
2022-12-12T14:34:52.819Z,5.10
2022-12-12T14:37:23.247Z,5.25
2022-12-12T14:40:02.446Z,7.00
2022-12-12T14:43:20.700Z,7.18
2022-12-12T14:45:56.938Z,8.30
2022-12-12T14:48:32.338Z,7.68
2022-12-12T14:51:07.922Z,3.60
2022-12-12T14:53:41.229Z,6.38
2022-12-12T14:56:19.780Z,5.72
2022-12-12T14:59:07.417Z,5.47
2022-12-12T15:01:39.327Z,5.03
2022-12-12T15:04:22.284Z,4.53
2022-12-12T15:07:00.102Z,2.65
2022-12-12T15:09:37.828Z,6.47
2022-12-12T15:12:14.437Z,3.80
2022-12-12T15:15:06.746Z,6.25
2022-12-12T15:17:50.532Z,4.35
2022-12-12T15:20:27.838Z,4.38
2022-12-12T15:23:08.771Z,5.10
2022-12-12T15:25:48.954Z,5.10
2022-12-12T15:28:22.580Z,5.05
2022-12-12T15:30:55.271Z,4.65
2022-12-12T15:33:30.038Z,4.25
2022-12-12T15:36:03.739Z,4.07
2022-12-12T15:38:35.519Z,3.22
2022-12-12T15:41:13.276Z,3.10
2022-12-12T15:43:46.194Z,4.63
2022-12-12T15:46:17.851Z,3.47
2022-12-12T15:48:51.183Z,4.82
2022-12-12T15:51:25.203Z,4.18
2022-12-12T15:53:59.585Z,5.20
2022-12-12T15:56:32.688Z,2.65
2022-12-12T15:59:11.630Z,3.63
2022-12-12T16:01:42.192Z,3.80
2022-12-12T16:04:13.010Z,3.85
2022-12-12T16:06:46.992Z,4.00
2022-12-12T16:09:25.824Z,1.88
2022-12-12T16:11:56.982Z,2.90
2022-12-12T16:14:43.645Z,3.13
2022-12-12T16:17:19.693Z,0.98
2022-12-12T16:20:01.859Z,2.53
2022-12-12T16:22:37.731Z,2.67
2022-12-12T16:25:27.888Z,2.17
2022-12-12T16:28:03.623Z,3.97
2022-12-12T16:30:34.405Z,2.28
2022-12-12T16:33:28.787Z,1.58
2022-12-12T16:36:02.466Z,1.77
2022-12-12T16:38:34.754Z,1.95
2022-12-12T16:41:11.229Z,2.88
2022-12-12T16:43:42.167Z,2.08
2022-12-12T16:46:20.806Z,2.47
2022-12-12T16:48:52.036Z,2.28
2022-12-12T16:51:32.753Z,2.65
2022-12-12T16:54:03.517Z,2.70
2022-12-12T16:56:34.065Z,2.30
2022-12-12T16:59:04.872Z,2.53
2022-12-12T17:01:38.717Z,1.13
2022-12-12T17:04:17.520Z,2.28
2022-12-12T17:06:47.970Z,2.08
2022-12-12T17:09:18.569Z,1.85
2022-12-12T17:11:49.300Z,1.52
2022-12-12T17:14:26.344Z,1.75
2022-12-12T17:16:57.883Z,1.80
2022-12-12T17:19:28.131Z,1.08
2022-12-12T17:21:58.530Z,0.98
2022-12-12T17:24:28.736Z,3.08
2022-12-12T17:26:59.161Z,1.63
2022-12-12T17:29:29.414Z,1.65
2022-12-12T17:31:59.798Z,1.48
2022-12-12T17:34:30.056Z,1.23
2022-12-12T17:37:00.439Z,0.80
2022-12-12T17:39:30.622Z,1.50
2022-12-12T17:42:01.050Z,1.27
2022-12-12T17:44:31.333Z,2.75
2022-12-12T17:47:01.720Z,1.02
2022-12-12T17:49:31.911Z,1.20
2022-12-12T17:52:02.203Z,0.98
2022-12-12T17:54:32.394Z,1.52
2022-12-12T17:57:02.833Z,1.05
2022-12-12T17:59:33.001Z,1.95
2022-12-12T18:02:03.250Z,1.27
2022-12-12T18:04:40.555Z,2.22
2022-12-12T18:07:12.173Z,0.75
2022-12-12T18:09:42.468Z,2.05
2022-12-12T18:12:12.858Z,0.98
2022-12-12T18:14:43.126Z,1.85
2022-12-12T18:17:13.560Z,0.35
2022-12-12T18:19:43.836Z,0.80
2022-12-12T18:22:14.144Z,3.38
2022-12-12T18:24:44.421Z,0.63
2022-12-12T18:27:15.297Z,0.85
2022-12-12T18:29:45.581Z,1.45
2022-12-12T18:32:15.933Z,2.38
2022-12-12T18:34:46.194Z,0.80
2022-12-12T18:37:17.285Z,1.15
2022-12-12T18:39:47.550Z,1.55
2022-12-12T18:42:18.071Z,1.60
2022-12-12T18:44:48.201Z,0.32
2022-12-12T18:47:18.636Z,0.77
2022-12-12T18:49:48.856Z,0.75
2022-12-12T18:52:19.293Z,2.00
2022-12-12T18:54:49.499Z,0.82
2022-12-12T18:57:20.200Z,1.52
2022-12-12T18:59:50.411Z,1.60
2022-12-12T19:02:20.693Z,0.98
2022-12-12T19:04:51.928Z,2.05
2022-12-12T19:07:23.388Z,1.63
2022-12-12T19:09:53.748Z,2.47
2022-12-12T19:12:24.210Z,0.82
2022-12-12T19:17:45.025Z,0.40
2022-12-12T19:20:15.487Z,0.30
2022-12-12T19:22:47.065Z,1.48
2022-12-12T19:25:19.426Z,1.85
2022-12-12T19:27:49.855Z,1.23
2022-12-12T19:30:20.136Z,0.50
2022-12-12T19:32:50.736Z,1.48
2022-12-12T19:35:21.032Z,1.15
2022-12-12T19:37:51.587Z,1.08
2022-12-12T19:40:21.873Z,1.00
2022-12-12T19:42:52.197Z,1.75
2022-12-12T19:45:22.495Z,1.40
2022-12-12T19:47:52.807Z,0.55
2022-12-12T19:50:23.042Z,0.82
2022-12-12T19:52:53.371Z,1.00
2022-12-12T19:55:24.589Z,0.90
2022-12-12T19:57:54.892Z,0.73
2022-12-12T20:00:25.203Z,0.50
2022-12-12T20:02:55.614Z,2.28
2022-12-12T20:05:25.881Z,0.80
2022-12-12T20:07:56.171Z,0.55
2022-12-12T20:10:26.393Z,0.65
2022-12-12T20:12:58.833Z,0.88
2022-12-12T20:15:29.318Z,0.68
2022-12-12T20:18:02.268Z,1.00
2022-12-12T20:20:32.433Z,1.85
2022-12-12T20:23:02.759Z,0.35
2022-12-12T20:25:32.931Z,0.80
2022-12-12T20:28:03.421Z,1.27
2022-12-12T20:30:33.680Z,0.65
2022-12-12T20:33:04.204Z,1.55
2022-12-12T20:35:37.240Z,0.70
2022-12-12T20:38:08.271Z,1.27
2022-12-12T20:40:41.468Z,0.50
2022-12-12T20:43:11.666Z,0.40
2022-12-12T20:45:41.895Z,2.40
2022-12-12T20:48:12.190Z,2.47
2022-12-12T20:50:43.312Z,1.00
2022-12-12T20:53:13.740Z,2.00
2022-12-12T20:55:44.021Z,0.40
2022-12-12T20:58:14.263Z,1.00
2022-12-12T21:00:44.447Z,0.52
2022-12-12T21:03:14.676Z,0.70
2022-12-12T21:05:44.922Z,0.52
2022-12-12T21:08:15.485Z,0.40
2022-12-12T21:10:45.777Z,1.48
2022-12-12T21:13:16.116Z,0.80
2022-12-12T21:15:47.054Z,2.78
2022-12-12T21:18:17.478Z,1.35
2022-12-12T21:20:48.090Z,1.30
2022-12-12T21:23:22.509Z,0.85
2022-12-12T21:25:52.740Z,0.40
2022-12-12T21:28:22.944Z,1.23
2022-12-12T21:30:53.343Z,0.65
2022-12-12T21:33:23.619Z,0.80
2022-12-12T21:35:54.447Z,0.43
2022-12-12T21:38:30.743Z,0.55
2022-12-12T21:41:05.369Z,2.95
2022-12-12T21:43:37.032Z,4.05
2022-12-12T21:46:16.166Z,2.72
2022-12-12T21:48:46.464Z,1.65
2022-12-12T21:51:18.737Z,4.97
2022-12-12T21:53:49.054Z,5.68
2022-12-12T21:56:20.355Z,5.78
2022-12-12T21:58:50.851Z,5.03
2022-12-12T22:01:22.905Z,4.05
2022-12-12T22:03:53.867Z,6.82
2022-12-12T22:06:30.226Z,5.32
2022-12-12T22:09:01.797Z,5.20
2022-12-12T22:11:47.533Z,2.60
2022-12-12T22:14:23.667Z,6.60
2022-12-12T22:16:54.276Z,7.93
2022-12-12T22:19:24.493Z,4.15
2022-12-12T22:21:54.710Z,1.63
2022-12-12T22:24:24.959Z,6.50
2022-12-12T22:26:55.583Z,2.33
2022-12-12T22:29:25.969Z,3.92
2022-12-12T22:31:56.278Z,3.05
2022-12-12T22:34:27.554Z,1.55
2022-12-12T22:36:57.804Z,1.50
2022-12-12T22:39:30.297Z,1.98
2022-12-12T22:42:00.709Z,3.97
2022-12-12T22:44:31.095Z,5.53
2022-12-12T22:47:01.582Z,3.40
2022-12-12T22:49:31.799Z,5.53
2022-12-12T22:52:01.959Z,3.20
2022-12-12T22:54:32.182Z,4.93
2022-12-12T22:57:02.670Z,4.35
2022-12-12T22:59:32.875Z,3.22
2022-12-12T23:02:03.209Z,4.82
2022-12-12T23:04:33.454Z,1.65
2022-12-12T23:07:03.881Z,1.65
2022-12-12T23:09:35.131Z,2.78
2022-12-12T23:12:05.527Z,2.58
2022-12-12T23:14:35.846Z,3.05
2022-12-12T23:17:06.370Z,3.00
2022-12-12T23:19:36.709Z,2.75
2022-12-12T23:22:07.219Z,2.65
2022-12-12T23:24:37.639Z,4.43
2022-12-12T23:27:08.009Z,4.88
2022-12-12T23:29:38.349Z,1.67
2022-12-12T23:32:08.834Z,2.50
2022-12-12T23:34:39.645Z,3.90
2022-12-12T23:37:11.116Z,2.15
2022-12-12T23:39:41.392Z,2.20
2022-12-12T23:42:12.760Z,1.33
2022-12-12T23:44:43.050Z,2.08
2022-12-12T23:47:13.273Z,2.40
2022-12-12T23:49:43.591Z,1.67
2022-12-12T23:52:13.912Z,2.50
2022-12-12T23:54:44.143Z,4.00
2022-12-12T23:57:14.373Z,1.55
2022-12-12T23:59:45.575Z,4.10
